Flight Track Log - Related Links

Times and Time Zones

All times are in EDT time to prevent confusion due to time zone crossing. See the SWA470 flight status page for this flight to view local times or setup timezone preferences in your user account.

Time Position Orientation Groundspeed Altitude Reporting Facility
EDT Latitude Longitude Course Direction KTS MPH feet Rate Location/Type
Mon 02:04:46 PM 41.8000 -87.7833 236° Southwest 163 188 1,900  Level Chicago TRACON
Mon 02:05:46 PM 41.7667 -87.8500 236° Southwest 230 265 4,500 2,235 Climbing Chicago TRACON
Mon 02:06:28 PM 41.7678 -87.9197 271° West 247 284 5,700 2,927 Climbing Chicago Center
Mon 02:08:00 PM 41.7646 -88.0786 265° West  Level FlightAware Approximate
Mon 02:10:35 PM 41.7728 -88.4108 270° West 349 402 18,600  Level Chicago Center
Mon 02:11:37 PM 41.7683 -88.5528 268° West 378 435 21,900 2,806 Climbing Chicago Center
Mon 02:12:39 PM 41.7558 -88.6969 263° West 393 452 24,400 2,548 Climbing Chicago Center
Mon 02:14:00 PM 41.7522 -88.8689 268° West  Level FlightAware Approximate
Mon 02:14:43 PM 41.7469 -89.0389 268° West 426 490 29,800  Level Chicago Center
Mon 02:15:00 PM 41.7000 -88.9761 270° West  Level FlightAware Approximate
Mon 02:15:45 PM 41.7425 -89.1967 268° West 427 491 32,000  Level Chicago Center
Mon 02:16:00 PM 41.7000 -89.1049 270° West  Level FlightAware Approximate
Mon 02:17:00 PM 41.7354 -89.3556 267° West  Level FlightAware Approximate
Mon 02:18:51 PM 41.7294 -89.7000 268° West 434 499 32,000  Level Chicago Center
Mon 02:19:54 PM 41.7242 -89.8578 267° West 430 495 32,000  Level Chicago Center
Mon 02:20:55 PM 41.7192 -90.0167 268° West 430 495 32,000  Level Chicago Center
Mon 02:22:00 PM 41.7128 -90.1544 267° West  Level FlightAware Approximate
Mon 02:24:00 PM 41.6997 -90.2440 268° West  Level FlightAware Approximate
Mon 02:24:01 PM 41.7006 -90.5011 266° West 437 503 32,000  Level Chicago Center
Mon 02:26:00 PM 41.6905 -90.7533 267° West  Level Estimated
Mon 02:27:07 PM 41.6789 -91.0189 267° West 433 498 32,000  Level Chicago Center
Mon 02:28:09 PM 41.6719 -91.1764 267° West 427 491 32,000 -738 Level Chicago Center
Mon 02:29:00 PM 41.6679 -91.0436 266° West  Level FlightAware Approximate
Mon 02:30:14 PM 41.6581 -91.4886 267° West 424 488 29,700  Level Chicago Center
Mon 02:31:16 PM 41.6506 -91.6436 266° West 421 484 26,900 -2,565 Descending Chicago Center
Mon 02:32:18 PM 41.6414 -91.8272 266° West 416 479 24,400 -1,403 Descending Chicago Center
Mon 02:33:20 PM 41.6347 -91.9681 266° West 393 452 24,000 -484 Descending Chicago Center
Mon 02:34:22 PM 41.6278 -92.1039 266° West 376 433 23,400 -1,500 Descending Chicago Center
Mon 02:35:24 PM 41.6200 -92.2400 266° West 373 429 20,900 -2,290 Descending Chicago Center
Mon 02:37:28 PM 41.6039 -92.5408 266° West 367 422 16,300 -2,194 Descending Minneapolis Center
Mon 02:38:30 PM 41.5961 -92.6800 266° West 352 405 14,100 -1,839 Descending Minneapolis Center
Mon 02:40:34 PM 41.5803 -92.9172 265° West 338 389 10,600 -1,484 Descending Chicago Center
Mon 02:41:36 PM 41.5572 -93.0436 256° West 296 341 9,500 -1,185 Descending Minneapolis Center
Mon 02:41:55 PM 41.5564 -93.0669 267° West 289 333 9,000 -1,645 Descending Minneapolis Center
Mon 02:42:38 PM 41.5361 -93.1542 253° West 288 331 7,800 -1,500 Descending Minneapolis Center
Mon 02:42:55 PM 41.5372 -93.1692 276° West 285 328 7,500 -1,308 Descending Minneapolis Center
Mon 02:43:56 PM 41.5175 -93.2683 255° West 281 323 6,100 -1,444 Descending Minneapolis Center
Mon 02:44:43 PM 41.4956 -93.3594 252° West 275 316 4,900 -1,431 Descending Minneapolis Center
Mon 02:45:45 PM 41.4764 -93.4556 255° West 270 311 3,500 -1,326 Descending Minneapolis Center
Mon 02:46:09 PM 41.4750 -93.4839 266° West 268 308 3,000 -968 Descending Minneapolis Center
Mon 02:46:47 PM 41.4586 -93.5511 252° West 266 306 2,500 -590 Descending Minneapolis Center
Mon 02:47:10 PM 41.4614 -93.5769 278° West 254 292 2,400 -145 Descending Minneapolis Center
Mon 02:48:51 PM 41.4697 -93.7050 275° West 178 205 2,200 -294 Descending Minneapolis Center
Mon 02:49:53 PM 41.5028 -93.7150 347° North 140 161 1,600 -629 Descending Minneapolis Center
Mon 02:50:55 PM 41.5256 -93.6733 54° Northeast 138 159 900 -677 Descending Minneapolis Center
Mon 02:53:00 PM 41.5340 -93.6631 37° Northeast  Level Estimated

Login

Don't have an account? Register now (free) for customized features, flight alerts, and more!